• Join FlightAware (Why Join?)
  • Login
  • US Flag 
05:55AM EST


 

Airport Tracker/Info


-or-


 

Live Flight TrackerFlight Track Log ✈ RPA3496 ✈ 13-May-2014 ✈ KLGA - KPIT

Flight Track Log - Related Links

Times and Time Zones

All times are in EDT time to prevent confusion due to time zone crossing. See the RPA3496 flight status page for this flight to view local times or setup timezone preferences in your user account.

Time Position Orientation Groundspeed Altitude Reporting Facility
EDT Latitude Longitude Course Direction KTS MPH feet Rate Location/Type
04:02PM 40.7333 -73.8167 283° West 186 214 2,600  Level New York TRACON
04:03PM 40.7667 -73.7667 49° Northeast 227 261 4,900 2,280 Climbing New York TRACON
04:04PM 40.8167 -73.8167 323° Northwest 271 312 7,200 2,640 Climbing New York TRACON
04:05PM 40.7666 -74.4138 269° West  Level Estimated
04:05PM 40.8167 -73.9167 270° West 268 308 10,200  Level New York TRACON
04:06PM 40.7641 -74.5220 268° West  Level Estimated
04:06PM 40.8167 -74.0167 270° West 288 331 12,200  Level New York TRACON
04:07PM 40.7823 -74.6276 283° West  Level FlightAware Approximate
04:07PM 40.8167 -74.1333 270° West 314 361 14,300  Level New York TRACON
04:08PM 40.8167 -74.2500 270° West 336 387 15,000 900 Climbing New York TRACON
04:09PM 40.8167 -74.3667 270° West 337 388 16,200 960 Climbing New York TRACON
04:10PM 40.8167 -74.5000 270° West 344 396 17,000 360 Climbing New York TRACON
04:11PM 40.8167 -74.6333 270° West 345 397 17,000 300 Level New York TRACON
04:12PM 40.8083 -74.7767 266° West 350 403 17,700 1,020 Climbing New York Center
04:13PM 40.8011 -74.9242 266° West 350 403 19,400 1,620 Climbing New York Center
04:14PM 40.7678 -75.0425 250° West 350 403 21,000 1,560 Climbing New York Center
04:15PM 40.7317 -75.1692 249° West 355 409 22,500 1,380 Climbing New York Center
04:16PM 40.6958 -75.2956 250° West 366 421 23,900 1,260 Climbing New York Center
04:17PM 40.6572 -75.4297 249° West 371 427 25,100 1,260 Climbing New York Center
04:18PM 40.6206 -75.5611 250° West 384 442 26,500 1,260 Climbing New York Center
04:19PM 40.5797 -75.6978 249° West 389 448 27,700 1,140 Climbing New York Center
04:20PM 40.5425 -75.8344 250° West 394 453 28,900 900 Climbing New York Center
04:21PM 40.4994 -75.9622 246° West 412 474 29,600 900 Climbing New York Center
04:22PM 40.4553 -76.1117 249° West 430 495 30,800 1,140 Climbing New York Center
04:23PM 40.4153 -76.2558 250° West 430 495 31,900 600 Climbing New York Center
04:24PM 40.3772 -76.4000 251° West 435 501 32,000  Climbing New York Center
04:25PM 40.3408 -76.5494 252° West 435 501 32,000  Level New York Center
04:26PM 40.3022 -76.6986 251° West 435 501 32,000  Level New York Center
04:27PM 40.2636 -76.8425 251° West 435 501 32,000  Level New York Center
04:28PM 40.2269 -76.9861 252° West 435 501 32,000  Level New York Center
04:29PM 40.1881 -77.1319 251° West 435 501 32,000 -540 Level New York Center
04:30PM 40.1503 -77.2861 252° West 424 488 31,000 -1,740 Descending New York Center
04:31PM 40.1111 -77.4317 251° West 424 488 28,600 -2,280 Descending New York Center
04:32PM 40.0764 -77.5656 251° West 402 463 26,400 -2,100 Descending Cleveland Center
04:33PM 40.0411 -77.6981 251° West 391 450 24,200 -2,160 Descending Cleveland Center
04:34PM 40.0000 -77.8517 251° West 379 436 22,000 -1,080 Descending Cleveland Center
04:35PM 39.9722 -77.9797 254° West 371 427 22,000  Level Cleveland Center
04:36PM 39.9750 -78.1181 272° West 380 437 22,000 -480 Level Cleveland Center
04:37PM 39.9789 -78.2528 272° West 379 436 21,100 -960 Descending Cleveland Center
04:38PM 39.9881 -78.3789 275° West 370 426 20,100 -1,140 Descending Cleveland Center
04:39PM 40.0122 -78.5292 282° West 357 411 18,800 -1,140 Descending Cleveland Center
04:40PM 40.0317 -78.6481 282° West 343 395 17,800 -900 Descending Cleveland Center
04:41PM 40.0494 -78.7644 281° West 333 383 17,000 -420 Descending Cleveland Center
04:42PM 40.0678 -78.8806 282° West 331 381 17,000  Level Cleveland Center
04:43PM 40.0864 -78.9983 282° West 331 381 17,000 -360 Level Cleveland Center
04:44PM 40.1200 -79.1103 291° West 333 383 16,300 -1,140 Descending Cleveland Center
04:45PM 40.1603 -79.2144 297° West 326 375 14,700 -1,740 Descending Cleveland Center
04:47PM 40.1972 -79.3342 292° West 326 375 12,800 -1,860 Descending Cleveland Center
04:48PM 40.2339 -79.4383 295° West 319 367 11,000 -1,380 Descending Cleveland Center
04:49PM 40.2733 -79.5314 299° West 297 342 10,000 -540 Descending Cleveland Center
04:50PM 40.3111 -79.6211 299° West 286 329 9,900 -1,140 Descending Cleveland Center
04:51PM 40.3567 -79.7278 299° West 283 326 7,700 -1,860 Descending Cleveland Center
04:52PM 40.3931 -79.8139 299° West 275 316 6,100 -1,380 Descending Cleveland Center
04:53PM 40.4278 -79.8950 299° West 263 303 4,900 -1,140 Descending Cleveland Center
04:54PM 40.4608 -79.9719 299° West 250 288 3,900 -960 Descending Cleveland Center
04:55PM 40.4811 -80.0439 290° West 224 258 3,000 -840 Descending Cleveland Center
04:56PM 40.4828 -80.1222 272° West 187 215 2,300 -720 Descending Cleveland Center
04:57PM 40.4836 -80.1736 271° West 162 186 1,600 -720 Descending Cleveland Center